sensor_id;sensor_type;location;lat;lon;timestamp;pressure;altitude;pressure_sealevel;temperature;humidity
62978;BME280;49073;42.352;23.808;2023-03-25T00:00:33;94478.94;;;5.08;81.02
62978;BME280;49073;42.352;23.808;2023-03-25T00:03:35;94483.91;;;5.10;81.02
62978;BME280;49073;42.352;23.808;2023-03-25T00:06:41;94476.28;;;5.08;81.04
62978;BME280;49073;42.352;23.808;2023-03-25T00:09:42;94477.84;;;5.09;81.33
62978;BME280;49073;42.352;23.808;2023-03-25T00:12:43;94469.66;;;5.02;81.63
62978;BME280;49073;42.352;23.808;2023-03-25T00:15:44;94467.97;;;4.98;81.46
62978;BME280;49073;42.352;23.808;2023-03-25T00:18:47;94465.25;;;4.85;81.57
62978;BME280;49073;42.352;23.808;2023-03-25T00:21:49;94462.63;;;4.85;81.98
62978;BME280;49073;42.352;23.808;2023-03-25T00:24:53;94458.59;;;4.88;81.65
62978;BME280;49073;42.352;23.808;2023-03-25T00:27:54;94459.22;;;4.85;81.65
62978;BME280;49073;42.352;23.808;2023-03-25T00:30:58;94465.91;;;4.82;81.63
62978;BME280;49073;42.352;23.808;2023-03-25T00:33:59;94456.97;;;4.74;81.59
62978;BME280;49073;42.352;23.808;2023-03-25T00:37:00;94453.91;;;4.63;82.73
62978;BME280;49073;42.352;23.808;2023-03-25T00:40:04;94445.66;;;4.65;82.31
62978;BME280;49073;42.352;23.808;2023-03-25T00:43:05;94452.03;;;4.64;82.89
62978;BME280;49073;42.352;23.808;2023-03-25T00:46:06;94435.56;;;4.67;82.34
62978;BME280;49073;42.352;23.808;2023-03-25T00:49:08;94429.19;;;4.68;83.13
62978;BME280;49073;42.352;23.808;2023-03-25T00:52:10;94423.56;;;4.78;81.80
62978;BME280;49073;42.352;23.808;2023-03-25T00:55:10;94414.78;;;4.65;82.24
62978;BME280;49073;42.352;23.808;2023-03-25T00:58:11;94423.00;;;4.64;82.65
62978;BME280;49073;42.352;23.808;2023-03-25T01:01:14;94424.56;;;4.65;83.35
62978;BME280;49073;42.352;23.808;2023-03-25T01:04:15;94418.28;;;4.78;82.90
62978;BME280;49073;42.352;23.808;2023-03-25T01:07:18;94417.38;;;4.74;81.92
62978;BME280;49073;42.352;23.808;2023-03-25T01:10:19;94416.59;;;4.74;81.72
62978;BME280;49073;42.352;23.808;2023-03-25T01:13:22;94409.88;;;4.55;81.47
62978;BME280;49073;42.352;23.808;2023-03-25T01:16:24;94413.03;;;4.48;82.32
62978;BME280;49073;42.352;23.808;2023-03-25T01:19:26;94409.19;;;4.46;82.79
62978;BME280;49073;42.352;23.808;2023-03-25T01:22:26;94408.72;;;4.44;82.80
62978;BME280;49073;42.352;23.808;2023-03-25T01:25:27;94409.97;;;4.37;83.41
62978;BME280;49073;42.352;23.808;2023-03-25T01:28:27;94401.75;;;4.39;83.47
62978;BME280;49073;42.352;23.808;2023-03-25T01:31:28;94403.06;;;4.54;83.05
62978;BME280;49073;42.352;23.808;2023-03-25T01:34:31;94397.97;;;4.49;82.30
62978;BME280;49073;42.352;23.808;2023-03-25T01:37:32;94393.81;;;4.48;81.42
62978;BME280;49073;42.352;23.808;2023-03-25T01:40:35;94385.47;;;4.37;82.19
62978;BME280;49073;42.352;23.808;2023-03-25T01:43:36;94379.16;;;4.29;82.16
62978;BME280;49073;42.352;23.808;2023-03-25T01:46:37;94375.94;;;4.24;82.27
62978;BME280;49073;42.352;23.808;2023-03-25T01:49:42;94379.47;;;4.28;82.62
62978;BME280;49073;42.352;23.808;2023-03-25T01:52:47;94374.22;;;4.28;82.98
62978;BME280;49073;42.352;23.808;2023-03-25T01:55:50;94363.31;;;4.29;82.88
62978;BME280;49073;42.352;23.808;2023-03-25T01:58:52;94371.75;;;4.22;83.77
62978;BME280;49073;42.352;23.808;2023-03-25T02:01:55;94364.94;;;4.21;83.62
62978;BME280;49073;42.352;23.808;2023-03-25T02:05:03;94359.47;;;4.27;83.15
62978;BME280;49073;42.352;23.808;2023-03-25T02:08:10;94346.81;;;4.11;83.61
62978;BME280;49073;42.352;23.808;2023-03-25T02:11:10;94349.75;;;4.18;83.66
62978;BME280;49073;42.352;23.808;2023-03-25T02:14:17;94346.84;;;4.32;83.02
62978;BME280;49073;42.352;23.808;2023-03-25T02:24:53;94339.66;;;4.20;82.14
62978;BME280;49073;42.352;23.808;2023-03-25T02:34:53;94317.81;;;4.11;81.94
62978;BME280;49073;42.352;23.808;2023-03-25T02:47:46;94317.84;;;3.81;84.31
62978;BME280;49073;42.352;23.808;2023-03-25T02:50:51;94315.56;;;4.01;82.99
62978;BME280;49073;42.352;23.808;2023-03-25T02:53:54;94319.66;;;3.89;82.71
62978;BME280;49073;42.352;23.808;2023-03-25T02:56:57;94311.00;;;3.89;83.47
62978;BME280;49073;42.352;23.808;2023-03-25T02:59:59;94305.16;;;3.74;83.59
62978;BME280;49073;42.352;23.808;2023-03-25T03:03:02;94302.88;;;3.73;83.90
62978;BME280;49073;42.352;23.808;2023-03-25T03:06:04;94300.06;;;3.69;84.07
62978;BME280;49073;42.352;23.808;2023-03-25T03:19:14;94298.59;;;3.59;84.50
62978;BME280;49073;42.352;23.808;2023-03-25T03:28:56;94292.97;;;3.70;84.63
62978;BME280;49073;42.352;23.808;2023-03-25T03:35:06;94300.31;;;3.85;83.52
62978;BME280;49073;42.352;23.808;2023-03-25T03:38:12;94298.63;;;3.81;83.59
62978;BME280;49073;42.352;23.808;2023-03-25T03:41:18;94309.34;;;3.75;83.42
62978;BME280;49073;42.352;23.808;2023-03-25T03:44:24;94300.53;;;3.71;84.24
62978;BME280;49073;42.352;23.808;2023-03-25T03:47:31;94303.44;;;3.78;84.99
62978;BME280;49073;42.352;23.808;2023-03-25T03:50:45;94298.13;;;3.87;83.24
62978;BME280;49073;42.352;23.808;2023-03-25T03:53:54;94301.00;;;3.73;82.73
62978;BME280;49073;42.352;23.808;2023-03-25T03:57:19;94306.97;;;3.61;83.70
62978;BME280;49073;42.352;23.808;2023-03-25T04:00:32;94302.81;;;3.52;84.38
62978;BME280;49073;42.352;23.808;2023-03-25T04:03:46;94298.13;;;3.57;84.42
62978;BME280;49073;42.352;23.808;2023-03-25T04:06:57;94296.00;;;3.42;85.18
62978;BME280;49073;42.352;23.808;2023-03-25T04:10:31;94297.56;;;3.43;85.97
62978;BME280;49073;42.352;23.808;2023-03-25T04:13:41;94300.00;;;3.48;85.57
62978;BME280;49073;42.352;23.808;2023-03-25T04:16:44;94296.00;;;3.51;86.17
62978;BME280;49073;42.352;23.808;2023-03-25T04:19:44;94302.19;;;3.46;86.15
62978;BME280;49073;42.352;23.808;2023-03-25T04:22:48;94298.94;;;3.49;85.03
62978;BME280;49073;42.352;23.808;2023-03-25T04:25:50;94297.69;;;3.55;84.30
62978;BME280;49073;42.352;23.808;2023-03-25T04:28:55;94303.44;;;3.48;84.15
62978;BME280;49073;42.352;23.808;2023-03-25T04:32:01;94298.47;;;3.47;84.99
62978;BME280;49073;42.352;23.808;2023-03-25T04:35:02;94305.63;;;3.38;85.68
62978;BME280;49073;42.352;23.808;2023-03-25T04:38:03;94304.84;;;3.46;86.53
62978;BME280;49073;42.352;23.808;2023-03-25T04:41:07;94302.06;;;3.42;86.11
62978;BME280;49073;42.352;23.808;2023-03-25T04:44:09;94307.78;;;3.44;87.01
62978;BME280;49073;42.352;23.808;2023-03-25T04:47:12;94298.00;;;3.54;87.40
62978;BME280;49073;42.352;23.808;2023-03-25T04:53:27;94302.94;;;3.85;86.73
62978;BME280;49073;42.352;23.808;2023-03-25T04:56:27;94303.88;;;3.81;87.26
62978;BME280;49073;42.352;23.808;2023-03-25T04:59:28;94298.94;;;3.79;87.80
62978;BME280;49073;42.352;23.808;2023-03-25T05:02:29;94298.00;;;3.84;88.64
62978;BME280;49073;42.352;23.808;2023-03-25T05:05:30;94301.47;;;3.97;89.37
62978;BME280;49073;42.352;23.808;2023-03-25T05:08:31;94303.94;;;4.02;89.82
62978;BME280;49073;42.352;23.808;2023-03-25T05:11:33;94306.53;;;4.32;90.16
62978;BME280;49073;42.352;23.808;2023-03-25T05:14:34;94310.81;;;4.58;90.37
62978;BME280;49073;42.352;23.808;2023-03-25T05:17:34;94305.34;;;4.63;90.73
62978;BME280;49073;42.352;23.808;2023-03-25T05:20:40;94304.50;;;4.71;90.77
62978;BME280;49073;42.352;23.808;2023-03-25T05:23:41;94301.59;;;4.85;90.33
62978;BME280;49073;42.352;23.808;2023-03-25T05:26:42;94299.19;;;4.92;90.42
62978;BME280;49073;42.352;23.808;2023-03-25T05:29:43;94285.44;;;4.99;89.69
62978;BME280;49073;42.352;23.808;2023-03-25T05:32:43;94291.78;;;5.19;88.26
62978;BME280;49073;42.352;23.808;2023-03-25T05:35:45;94301.03;;;5.26;87.78
62978;BME280;49073;42.352;23.808;2023-03-25T05:38:46;94304.56;;;5.30;88.21
62978;BME280;49073;42.352;23.808;2023-03-25T05:41:47;94305.00;;;5.32;87.62
62978;BME280;49073;42.352;23.808;2023-03-25T05:44:51;94311.75;;;5.54;86.69
62978;BME280;49073;42.352;23.808;2023-03-25T05:47:52;94314.38;;;5.79;85.68
62978;BME280;49073;42.352;23.808;2023-03-25T05:50:53;94299.16;;;5.88;85.81
62978;BME280;49073;42.352;23.808;2023-03-25T05:53:56;94297.63;;;6.00;87.34
62978;BME280;49073;42.352;23.808;2023-03-25T05:56:56;94302.16;;;6.11;88.32
62978;BME280;49073;42.352;23.808;2023-03-25T05:59:57;94292.75;;;6.26;88.21
62978;BME280;49073;42.352;23.808;2023-03-25T06:02:57;94295.38;;;6.39;89.04
62978;BME280;49073;42.352;23.808;2023-03-25T06:05:59;94301.84;;;6.54;86.92
62978;BME280;49073;42.352;23.808;2023-03-25T06:09:00;94299.63;;;6.56;85.15
62978;BME280;49073;42.352;23.808;2023-03-25T06:12:02;94298.19;;;6.59;84.29
62978;BME280;49073;42.352;23.808;2023-03-25T06:15:06;94289.56;;;6.62;85.77
62978;BME280;49073;42.352;23.808;2023-03-25T06:18:06;94305.91;;;6.64;86.27
62978;BME280;49073;42.352;23.808;2023-03-25T06:21:09;94300.00;;;6.70;87.07
62978;BME280;49073;42.352;23.808;2023-03-25T06:24:10;94302.88;;;6.94;89.29
62978;BME280;49073;42.352;23.808;2023-03-25T06:27:13;94305.28;;;6.99;88.59
62978;BME280;49073;42.352;23.808;2023-03-25T06:30:18;94304.28;;;7.04;86.88
62978;BME280;49073;42.352;23.808;2023-03-25T06:33:19;94295.75;;;7.26;87.09
62978;BME280;49073;42.352;23.808;2023-03-25T06:36:20;94301.59;;;7.48;86.20
62978;BME280;49073;42.352;23.808;2023-03-25T06:39:20;94304.22;;;7.64;84.49
62978;BME280;49073;42.352;23.808;2023-03-25T06:42:22;94301.41;;;7.89;83.24
62978;BME280;49073;42.352;23.808;2023-03-25T06:45:23;94291.03;;;8.00;80.09
62978;BME280;49073;42.352;23.808;2023-03-25T06:48:24;94297.75;;;8.13;79.03
62978;BME280;49073;42.352;23.808;2023-03-25T06:51:25;94300.44;;;8.33;79.11
62978;BME280;49073;42.352;23.808;2023-03-25T06:54:26;94305.19;;;8.43;76.10
62978;BME280;49073;42.352;23.808;2023-03-25T06:57:27;94297.22;;;8.59;75.04
62978;BME280;49073;42.352;23.808;2023-03-25T07:00:27;94299.66;;;8.88;75.27
62978;BME280;49073;42.352;23.808;2023-03-25T07:03:28;94297.66;;;9.05;74.57
62978;BME280;49073;42.352;23.808;2023-03-25T07:06:30;94301.97;;;9.13;73.01
62978;BME280;49073;42.352;23.808;2023-03-25T07:09:30;94306.34;;;9.44;75.20
62978;BME280;49073;42.352;23.808;2023-03-25T07:12:33;94302.97;;;9.48;73.07
62978;BME280;49073;42.352;23.808;2023-03-25T07:15:34;94287.53;;;9.57;73.26
62978;BME280;49073;42.352;23.808;2023-03-25T07:18:35;94295.63;;;9.64;71.59
62978;BME280;49073;42.352;23.808;2023-03-25T07:21:35;94297.44;;;9.83;69.56
62978;BME280;49073;42.352;23.808;2023-03-25T07:24:36;94293.16;;;10.02;68.47
62978;BME280;49073;42.352;23.808;2023-03-25T07:27:36;94284.00;;;10.30;66.96
62978;BME280;49073;42.352;23.808;2023-03-25T07:30:37;94291.31;;;10.37;65.99
62978;BME280;49073;42.352;23.808;2023-03-25T07:33:37;94281.88;;;10.70;65.81
62978;BME280;49073;42.352;23.808;2023-03-25T07:36:38;94284.31;;;10.86;65.27
62978;BME280;49073;42.352;23.808;2023-03-25T07:39:39;94274.97;;;11.03;64.05
62978;BME280;49073;42.352;23.808;2023-03-25T07:42:39;94269.31;;;11.08;64.31
62978;BME280;49073;42.352;23.808;2023-03-25T07:45:40;94274.94;;;11.37;62.64
62978;BME280;49073;42.352;23.808;2023-03-25T07:48:40;94270.44;;;11.48;63.15
62978;BME280;49073;42.352;23.808;2023-03-25T07:51:42;94267.16;;;11.66;62.15
62978;BME280;49073;42.352;23.808;2023-03-25T07:54:43;94267.38;;;11.99;62.79
62978;BME280;49073;42.352;23.808;2023-03-25T07:57:43;94264.50;;;12.26;63.20
62978;BME280;49073;42.352;23.808;2023-03-25T08:00:44;94256.91;;;12.35;60.68
62978;BME280;49073;42.352;23.808;2023-03-25T08:03:45;94267.97;;;12.33;63.22
62978;BME280;49073;42.352;23.808;2023-03-25T08:06:46;94256.69;;;12.73;62.92
62978;BME280;49073;42.352;23.808;2023-03-25T08:09:46;94259.44;;;12.98;60.94
62978;BME280;49073;42.352;23.808;2023-03-25T08:12:50;94262.16;;;13.23;61.16
62978;BME280;49073;42.352;23.808;2023-03-25T08:15:52;94247.66;;;13.39;61.96
62978;BME280;49073;42.352;23.808;2023-03-25T08:18:53;94257.97;;;13.84;58.95
62978;BME280;49073;42.352;23.808;2023-03-25T08:21:53;94257.97;;;13.84;60.45
62978;BME280;49073;42.352;23.808;2023-03-25T08:24:54;94256.06;;;13.99;58.91
62978;BME280;49073;42.352;23.808;2023-03-25T08:27:54;94246.09;;;14.03;59.95
62978;BME280;49073;42.352;23.808;2023-03-25T08:30:56;94235.44;;;13.85;57.47
62978;BME280;49073;42.352;23.808;2023-03-25T08:34:01;94241.19;;;13.76;58.96
62978;BME280;49073;42.352;23.808;2023-03-25T08:37:02;94230.47;;;13.76;59.71
62978;BME280;49073;42.352;23.808;2023-03-25T08:40:06;94218.97;;;13.83;58.45
62978;BME280;49073;42.352;23.808;2023-03-25T08:43:10;94217.44;;;13.96;59.60
62978;BME280;49073;42.352;23.808;2023-03-25T08:46:10;94213.47;;;14.34;54.16
62978;BME280;49073;42.352;23.808;2023-03-25T08:49:11;94213.78;;;14.54;53.97
62978;BME280;49073;42.352;23.808;2023-03-25T08:52:12;94206.13;;;15.27;51.01
62978;BME280;49073;42.352;23.808;2023-03-25T08:55:12;94202.94;;;15.39;51.69
62978;BME280;49073;42.352;23.808;2023-03-25T08:58:15;94193.28;;;15.95;47.11
62978;BME280;49073;42.352;23.808;2023-03-25T09:01:17;94202.19;;;16.23;45.39
62978;BME280;49073;42.352;23.808;2023-03-25T09:04:17;94193.03;;;16.51;45.62
62978;BME280;49073;42.352;23.808;2023-03-25T09:07:18;94192.13;;;16.62;44.08
62978;BME280;49073;42.352;23.808;2023-03-25T09:10:18;94190.63;;;16.61;43.61
62978;BME280;49073;42.352;23.808;2023-03-25T09:13:19;94185.09;;;16.71;43.01
62978;BME280;49073;42.352;23.808;2023-03-25T09:16:20;94183.25;;;16.96;42.61
62978;BME280;49073;42.352;23.808;2023-03-25T09:19:20;94182.59;;;17.15;41.91
62978;BME280;49073;42.352;23.808;2023-03-25T09:22:21;94177.50;;;17.45;40.90
62978;BME280;49073;42.352;23.808;2023-03-25T09:25:22;94176.53;;;17.59;41.22
62978;BME280;49073;42.352;23.808;2023-03-25T09:28:23;94175.78;;;17.79;40.58
62978;BME280;49073;42.352;23.808;2023-03-25T09:31:23;94168.56;;;17.96;40.21
62978;BME280;49073;42.352;23.808;2023-03-25T09:34:25;94161.16;;;18.00;39.43
62978;BME280;49073;42.352;23.808;2023-03-25T09:37:27;94167.97;;;18.08;39.14
62978;BME280;49073;42.352;23.808;2023-03-25T09:40:27;94165.13;;;18.36;40.64
62978;BME280;49073;42.352;23.808;2023-03-25T09:46:37;94157.25;;;18.45;39.31
62978;BME280;49073;42.352;23.808;2023-03-25T09:49:41;94158.50;;;18.40;40.89
62978;BME280;49073;42.352;23.808;2023-03-25T09:55:45;94151.50;;;17.82;40.51
62978;BME280;49073;42.352;23.808;2023-03-25T09:58:49;94160.06;;;17.77;40.82
62978;BME280;49073;42.352;23.808;2023-03-25T10:02:18;94141.00;;;18.08;39.45
62978;BME280;49073;42.352;23.808;2023-03-25T10:16:22;94128.00;;;19.13;37.15
62978;BME280;49073;42.352;23.808;2023-03-25T10:25:54;94114.09;;;19.48;35.20
62978;BME280;49073;42.352;23.808;2023-03-25T10:29:01;94113.84;;;19.72;37.17
62978;BME280;49073;42.352;23.808;2023-03-25T10:32:15;94101.91;;;19.86;35.43
62978;BME280;49073;42.352;23.808;2023-03-25T10:35:38;94101.47;;;19.87;34.85
62978;BME280;49073;42.352;23.808;2023-03-25T10:38:40;94095.22;;;19.90;35.34
62978;BME280;49073;42.352;23.808;2023-03-25T10:41:41;94082.22;;;19.85;35.04
62978;BME280;49073;42.352;23.808;2023-03-25T10:44:43;94073.09;;;20.09;35.39
62978;BME280;49073;42.352;23.808;2023-03-25T10:47:46;94069.78;;;20.17;35.43
62978;BME280;49073;42.352;23.808;2023-03-25T10:50:49;94069.78;;;20.30;35.47
62978;BME280;49073;42.352;23.808;2023-03-25T10:53:50;94058.88;;;20.47;34.93
62978;BME280;49073;42.352;23.808;2023-03-25T10:56:54;94049.44;;;20.52;33.63
62978;BME280;49073;42.352;23.808;2023-03-25T11:00:23;94047.91;;;20.76;33.89
62978;BME280;49073;42.352;23.808;2023-03-25T11:03:30;94045.19;;;21.02;33.66
62978;BME280;49073;42.352;23.808;2023-03-25T11:06:40;94041.28;;;21.03;32.99
62978;BME280;49073;42.352;23.808;2023-03-25T11:09:41;94032.78;;;21.27;34.88
62978;BME280;49073;42.352;23.808;2023-03-25T11:12:42;94025.84;;;21.26;33.88
62978;BME280;49073;42.352;23.808;2023-03-25T11:15:47;94024.75;;;21.24;33.74
62978;BME280;49073;42.352;23.808;2023-03-25T11:18:50;94022.44;;;21.35;32.28
62978;BME280;49073;42.352;23.808;2023-03-25T11:22:03;94021.81;;;21.53;33.04
62978;BME280;49073;42.352;23.808;2023-03-25T11:25:17;94016.34;;;21.44;34.16
62978;BME280;49073;42.352;23.808;2023-03-25T11:28:40;94003.28;;;21.29;33.56
62978;BME280;49073;42.352;23.808;2023-03-25T11:31:43;93997.75;;;20.98;32.96
62978;BME280;49073;42.352;23.808;2023-03-25T11:34:46;93990.38;;;20.98;33.07
62978;BME280;49073;42.352;23.808;2023-03-25T11:37:54;93981.66;;;21.16;32.95
62978;BME280;49073;42.352;23.808;2023-03-25T11:40:55;93985.91;;;21.04;32.15
62978;BME280;49073;42.352;23.808;2023-03-25T11:43:57;93975.41;;;21.29;33.16
62978;BME280;49073;42.352;23.808;2023-03-25T11:47:02;93972.91;;;21.34;32.16
62978;BME280;49073;42.352;23.808;2023-03-25T11:50:04;93965.34;;;21.29;32.69
62978;BME280;49073;42.352;23.808;2023-03-25T11:53:06;93968.66;;;21.78;32.84
62978;BME280;49073;42.352;23.808;2023-03-25T11:56:10;93956.69;;;21.88;33.64
62978;BME280;49073;42.352;23.808;2023-03-25T11:59:26;93962.94;;;21.76;32.84
62978;BME280;49073;42.352;23.808;2023-03-25T12:02:35;93964.44;;;21.77;32.77
62978;BME280;49073;42.352;23.808;2023-03-25T12:05:37;93946.31;;;21.96;33.57
62978;BME280;49073;42.352;23.808;2023-03-25T12:08:58;93942.31;;;21.34;33.11
62978;BME280;49073;42.352;23.808;2023-03-25T12:15:42;93940.38;;;21.57;33.80
62978;BME280;49073;42.352;23.808;2023-03-25T12:25:53;93946.66;;;20.74;34.28
62978;BME280;49073;42.352;23.808;2023-03-25T12:36:27;93944.78;;;21.63;32.94
62978;BME280;49073;42.352;23.808;2023-03-25T12:39:38;93955.38;;;21.48;33.61
62978;BME280;49073;42.352;23.808;2023-03-25T12:42:54;93940.25;;;21.38;33.90
62978;BME280;49073;42.352;23.808;2023-03-25T12:46:07;93940.16;;;20.71;34.00
62978;BME280;49073;42.352;23.808;2023-03-25T13:06:22;93932.88;;;19.94;35.83
62978;BME280;49073;42.352;23.808;2023-03-25T13:09:27;93928.84;;;19.86;36.49
62978;BME280;49073;42.352;23.808;2023-03-25T13:16:03;93930.34;;;19.61;36.67
62978;BME280;49073;42.352;23.808;2023-03-25T13:19:10;93930.13;;;19.55;37.62
62978;BME280;49073;42.352;23.808;2023-03-25T13:22:35;93940.28;;;19.51;37.09
62978;BME280;49073;42.352;23.808;2023-03-25T13:25:49;93941.56;;;19.46;37.68
62978;BME280;49073;42.352;23.808;2023-03-25T13:29:02;93944.00;;;19.28;38.25
62978;BME280;49073;42.352;23.808;2023-03-25T13:32:17;93937.50;;;19.25;38.61
62978;BME280;49073;42.352;23.808;2023-03-25T13:35:52;93940.59;;;19.11;38.56
62978;BME280;49073;42.352;23.808;2023-03-25T13:38:56;93940.44;;;19.01;39.35
62978;BME280;49073;42.352;23.808;2023-03-25T13:42:11;93947.53;;;18.95;39.05
62978;BME280;49073;42.352;23.808;2023-03-25T13:45:19;93929.63;;;18.85;39.29
62978;BME280;49073;42.352;23.808;2023-03-25T13:48:36;93930.69;;;18.74;39.33
62978;BME280;49073;42.352;23.808;2023-03-25T13:51:39;93937.44;;;18.66;39.72
62978;BME280;49073;42.352;23.808;2023-03-25T13:55:04;93934.41;;;18.64;39.60
62978;BME280;49073;42.352;23.808;2023-03-25T13:58:30;93928.00;;;18.58;41.09
62978;BME280;49073;42.352;23.808;2023-03-25T14:14:17;93918.16;;;18.18;41.29
62978;BME280;49073;42.352;23.808;2023-03-25T14:17:21;93914.53;;;18.08;41.03
62978;BME280;49073;42.352;23.808;2023-03-25T14:20:26;93924.63;;;18.04;41.14
62978;BME280;49073;42.352;23.808;2023-03-25T14:23:31;93913.09;;;18.03;40.61
62978;BME280;49073;42.352;23.808;2023-03-25T14:26:33;93914.00;;;17.97;40.11
62978;BME280;49073;42.352;23.808;2023-03-25T14:30:06;93925.28;;;17.92;40.03
62978;BME280;49073;42.352;23.808;2023-03-25T14:33:17;93936.28;;;17.81;40.52
62978;BME280;49073;42.352;23.808;2023-03-25T14:36:27;93931.47;;;17.72;40.47
62978;BME280;49073;42.352;23.808;2023-03-25T14:42:39;93925.69;;;17.53;40.50
62978;BME280;49073;42.352;23.808;2023-03-25T14:49:19;93938.44;;;17.33;41.59
62978;BME280;49073;42.352;23.808;2023-03-25T14:52:42;93930.19;;;17.20;41.75
62978;BME280;49073;42.352;23.808;2023-03-25T14:55:45;93932.63;;;17.14;42.60
62978;BME280;49073;42.352;23.808;2023-03-25T14:58:51;93956.63;;;17.05;42.04
62978;BME280;49073;42.352;23.808;2023-03-25T15:01:53;93965.59;;;16.98;42.76
62978;BME280;49073;42.352;23.808;2023-03-25T15:04:57;93967.75;;;16.83;43.88
62978;BME280;49073;42.352;23.808;2023-03-25T15:11:13;93960.69;;;16.45;45.98
62978;BME280;49073;42.352;23.808;2023-03-25T15:14:20;93981.72;;;16.26;47.12
62978;BME280;49073;42.352;23.808;2023-03-25T15:17:44;94000.94;;;16.25;46.79
62978;BME280;49073;42.352;23.808;2023-03-25T15:20:45;94015.59;;;16.20;46.81
62978;BME280;49073;42.352;23.808;2023-03-25T15:23:48;94018.66;;;16.22;47.42
62978;BME280;49073;42.352;23.808;2023-03-25T15:26:53;94036.31;;;16.23;47.34
62978;BME280;49073;42.352;23.808;2023-03-25T15:34:00;94053.06;;;16.04;47.90
62978;BME280;49073;42.352;23.808;2023-03-25T15:37:22;94042.38;;;16.00;49.93
62978;BME280;49073;42.352;23.808;2023-03-25T15:48:03;94043.81;;;15.39;57.04
62978;BME280;49073;42.352;23.808;2023-03-25T15:54:53;94055.25;;;15.01;61.71
62978;BME280;49073;42.352;23.808;2023-03-25T15:58:01;94041.59;;;14.84;63.48
62978;BME280;49073;42.352;23.808;2023-03-25T16:01:13;94030.19;;;14.77;64.26
62978;BME280;49073;42.352;23.808;2023-03-25T16:04:40;94031.00;;;14.70;64.75
62978;BME280;49073;42.352;23.808;2023-03-25T16:07:43;94014.28;;;14.48;71.19
62978;BME280;49073;42.352;23.808;2023-03-25T16:10:45;94012.09;;;14.32;72.13
62978;BME280;49073;42.352;23.808;2023-03-25T16:13:47;94004.47;;;14.30;73.08
62978;BME280;49073;42.352;23.808;2023-03-25T16:17:01;93991.91;;;14.16;67.80
62978;BME280;49073;42.352;23.808;2023-03-25T16:20:04;93988.03;;;14.24;65.76
62978;BME280;49073;42.352;23.808;2023-03-25T16:23:07;93987.53;;;14.40;64.73
62978;BME280;49073;42.352;23.808;2023-03-25T16:26:35;93984.44;;;14.42;64.44
62978;BME280;49073;42.352;23.808;2023-03-25T16:29:37;93994.78;;;14.44;67.22
62978;BME280;49073;42.352;23.808;2023-03-25T16:32:38;93994.16;;;14.21;68.48
62978;BME280;49073;42.352;23.808;2023-03-25T16:36:02;93976.25;;;14.07;67.89
62978;BME280;49073;42.352;23.808;2023-03-25T16:39:02;93975.66;;;13.85;69.44
62978;BME280;49073;42.352;23.808;2023-03-25T16:42:37;93976.41;;;13.86;70.70
62978;BME280;49073;42.352;23.808;2023-03-25T16:45:38;93972.16;;;13.92;64.38
62978;BME280;49073;42.352;23.808;2023-03-25T16:48:48;93966.75;;;14.03;62.81
62978;BME280;49073;42.352;23.808;2023-03-25T16:51:50;93970.94;;;14.04;62.40
62978;BME280;49073;42.352;23.808;2023-03-25T16:57:52;93953.03;;;13.93;66.22
62978;BME280;49073;42.352;23.808;2023-03-25T17:00:54;93960.75;;;13.77;69.31
62978;BME280;49073;42.352;23.808;2023-03-25T17:04:12;93946.66;;;13.69;71.63
62978;BME280;49073;42.352;23.808;2023-03-25T17:07:16;93948.56;;;13.72;71.15
62978;BME280;49073;42.352;23.808;2023-03-25T17:10:23;93961.28;;;13.46;70.88
62978;BME280;49073;42.352;23.808;2023-03-25T17:13:27;93961.28;;;13.39;70.43
62978;BME280;49073;42.352;23.808;2023-03-25T17:16:31;93966.63;;;13.39;71.03
62978;BME280;49073;42.352;23.808;2023-03-25T17:19:33;93956.00;;;13.28;71.41
62978;BME280;49073;42.352;23.808;2023-03-25T17:22:38;93969.75;;;13.27;71.27
62978;BME280;49073;42.352;23.808;2023-03-25T17:26:00;93972.78;;;13.25;71.40
62978;BME280;49073;42.352;23.808;2023-03-25T17:29:05;93973.19;;;13.23;71.96
62978;BME280;49073;42.352;23.808;2023-03-25T17:32:16;93969.03;;;13.15;72.37
62978;BME280;49073;42.352;23.808;2023-03-25T17:35:19;93975.91;;;13.13;72.90
62978;BME280;49073;42.352;23.808;2023-03-25T17:38:28;93973.59;;;13.18;70.89
62978;BME280;49073;42.352;23.808;2023-03-25T17:41:35;93972.09;;;12.95;71.60
62978;BME280;49073;42.352;23.808;2023-03-25T17:44:37;93965.28;;;12.80;71.63
62978;BME280;49073;42.352;23.808;2023-03-25T17:47:38;93980.91;;;12.92;72.41
62978;BME280;49073;42.352;23.808;2023-03-25T17:50:48;93973.31;;;12.73;72.48
62978;BME280;49073;42.352;23.808;2023-03-25T17:53:50;93976.75;;;12.77;71.88
62978;BME280;49073;42.352;23.808;2023-03-25T17:56:51;93979.06;;;12.53;73.57
62978;BME280;49073;42.352;23.808;2023-03-25T17:59:52;93972.56;;;12.14;75.49
62978;BME280;49073;42.352;23.808;2023-03-25T18:02:55;93971.00;;;12.06;76.07
62978;BME280;49073;42.352;23.808;2023-03-25T18:05:55;93966.38;;;11.85;76.97
62978;BME280;49073;42.352;23.808;2023-03-25T18:08:57;93974.41;;;11.92;76.51
62978;BME280;49073;42.352;23.808;2023-03-25T18:11:58;93974.06;;;12.12;76.27
62978;BME280;49073;42.352;23.808;2023-03-25T18:14:59;93976.75;;;12.08;75.76
62978;BME280;49073;42.352;23.808;2023-03-25T18:17:59;93977.53;;;12.12;74.24
62978;BME280;49073;42.352;23.808;2023-03-25T18:21:00;93981.34;;;12.11;74.84
62978;BME280;49073;42.352;23.808;2023-03-25T18:24:03;93983.56;;;11.98;75.34
62978;BME280;49073;42.352;23.808;2023-03-25T18:27:03;93986.59;;;11.78;76.41
62978;BME280;49073;42.352;23.808;2023-03-25T18:30:28;93986.56;;;11.75;76.13
62978;BME280;49073;42.352;23.808;2023-03-25T18:33:29;93995.69;;;11.67;76.70
62978;BME280;49073;42.352;23.808;2023-03-25T18:36:33;93996.44;;;11.56;77.03
62978;BME280;49073;42.352;23.808;2023-03-25T18:39:34;93996.41;;;11.53;77.17
62978;BME280;49073;42.352;23.808;2023-03-25T18:42:35;93987.63;;;11.48;76.63